sensor_id;sensor_type;location;lat;lon;timestamp;pressure;altitude;pressure_sealevel;temperature;humidity
69784;BME280;57054;51.978;4.498;2023-03-15T00:01:32;101199.47;;;4.07;92.51
69784;BME280;57054;51.978;4.498;2023-03-15T00:03:58;101199.47;;;4.07;92.73
69784;BME280;57054;51.978;4.498;2023-03-15T00:06:23;101200.34;;;4.08;92.77
69784;BME280;57054;51.978;4.498;2023-03-15T00:08:49;101204.66;;;4.09;92.85
69784;BME280;57054;51.978;4.498;2023-03-15T00:11:16;101203.78;;;4.10;92.73
69784;BME280;57054;51.978;4.498;2023-03-15T00:13:42;101207.22;;;4.10;92.62
69784;BME280;57054;51.978;4.498;2023-03-15T00:16:09;101200.38;;;4.06;91.91
69784;BME280;57054;51.978;4.498;2023-03-15T00:18:35;101215.03;;;4.06;91.98
69784;BME280;57054;51.978;4.498;2023-03-15T00:21:00;101218.53;;;4.01;91.65
69784;BME280;57054;51.978;4.498;2023-03-15T00:23:26;101205.56;;;4.00;91.78
69784;BME280;57054;51.978;4.498;2023-03-15T00:25:52;101213.34;;;4.01;91.97
69784;BME280;57054;51.978;4.498;2023-03-15T00:28:17;101224.63;;;3.97;90.97
69784;BME280;57054;51.978;4.498;2023-03-15T00:30:43;101217.75;;;3.89;90.39
69784;BME280;57054;51.978;4.498;2023-03-15T00:33:11;101214.31;;;3.88;90.87
69784;BME280;57054;51.978;4.498;2023-03-15T00:35:39;101218.59;;;3.91;91.21
69784;BME280;57054;51.978;4.498;2023-03-15T00:38:06;101220.34;;;3.92;91.36
69784;BME280;57054;51.978;4.498;2023-03-15T00:40:31;101222.03;;;3.94;91.33
69784;BME280;57054;51.978;4.498;2023-03-15T00:42:57;101222.03;;;3.96;91.41
69784;BME280;57054;51.978;4.498;2023-03-15T00:45:22;101228.06;;;3.98;91.37
69784;BME280;57054;51.978;4.498;2023-03-15T00:47:49;101227.22;;;3.96;91.29
69784;BME280;57054;51.978;4.498;2023-03-15T00:50:15;101229.81;;;3.96;91.08
69784;BME280;57054;51.978;4.498;2023-03-15T00:52:40;101222.88;;;3.98;91.37
69784;BME280;57054;51.978;4.498;2023-03-15T00:55:13;101233.22;;;3.99;91.34
69784;BME280;57054;51.978;4.498;2023-03-15T00:57:42;101235.81;;;3.99;91.18
69784;BME280;57054;51.978;4.498;2023-03-15T01:00:12;101235.81;;;3.99;91.12
69784;BME280;57054;51.978;4.498;2023-03-15T01:02:38;101239.25;;;4.01;91.21
69784;BME280;57054;51.978;4.498;2023-03-15T01:05:05;101244.44;;;4.03;91.32
69784;BME280;57054;51.978;4.498;2023-03-15T01:07:31;101247.88;;;4.03;91.37
69784;BME280;57054;51.978;4.498;2023-03-15T01:10:01;101242.69;;;4.05;91.63
69784;BME280;57054;51.978;4.498;2023-03-15T01:12:30;101248.75;;;4.04;91.19
69784;BME280;57054;51.978;4.498;2023-03-15T01:15:00;101246.13;;;4.06;91.50
69784;BME280;57054;51.978;4.498;2023-03-15T01:17:26;101259.09;;;4.07;91.88
69784;BME280;57054;51.978;4.498;2023-03-15T01:19:51;101262.53;;;4.09;91.59
69784;BME280;57054;51.978;4.498;2023-03-15T01:22:18;101263.41;;;4.10;91.64
69784;BME280;57054;51.978;4.498;2023-03-15T01:24:43;101268.59;;;4.10;91.71
69784;BME280;57054;51.978;4.498;2023-03-15T01:27:09;101266.84;;;4.09;91.77
69784;BME280;57054;51.978;4.498;2023-03-15T01:29:34;101266.00;;;4.08;91.88
69784;BME280;57054;51.978;4.498;2023-03-15T01:32:00;101273.78;;;4.08;91.81
69784;BME280;57054;51.978;4.498;2023-03-15T01:34:25;101268.59;;;4.08;91.95
69784;BME280;57054;51.978;4.498;2023-03-15T01:36:51;101276.38;;;4.08;91.89
69784;BME280;57054;51.978;4.498;2023-03-15T01:39:17;101283.31;;;4.06;92.03
69784;BME280;57054;51.978;4.498;2023-03-15T01:41:42;101286.75;;;4.07;91.99
69784;BME280;57054;51.978;4.498;2023-03-15T01:44:13;101292.78;;;4.07;91.89
69784;BME280;57054;51.978;4.498;2023-03-15T01:46:39;101301.44;;;4.04;91.88
69784;BME280;57054;51.978;4.498;2023-03-15T01:52:08;101304.91;;;4.02;92.09
69784;BME280;57054;51.978;4.498;2023-03-15T01:54:55;101310.97;;;4.01;91.86
69784;BME280;57054;51.978;4.498;2023-03-15T01:57:40;101313.56;;;4.01;91.97
69784;BME280;57054;51.978;4.498;2023-03-15T02:00:15;101316.16;;;3.99;91.79
69784;BME280;57054;51.978;4.498;2023-03-15T02:02:54;101317.06;;;3.98;91.68
69784;BME280;57054;51.978;4.498;2023-03-15T02:05:32;101319.66;;;3.98;91.68
69784;BME280;57054;51.978;4.498;2023-03-15T02:08:00;101321.34;;;3.96;91.71
69784;BME280;57054;51.978;4.498;2023-03-15T02:10:33;101320.50;;;3.94;91.79
69784;BME280;57054;51.978;4.498;2023-03-15T02:13:01;101321.41;;;3.95;91.76
69784;BME280;57054;51.978;4.498;2023-03-15T02:15:27;101317.06;;;3.92;91.80
69784;BME280;57054;51.978;4.498;2023-03-15T02:17:52;101330.91;;;3.90;91.61
69784;BME280;57054;51.978;4.498;2023-03-15T02:20:30;101332.63;;;3.89;91.52
69784;BME280;57054;51.978;4.498;2023-03-15T02:23:01;101338.69;;;3.88;91.54
69784;BME280;57054;51.978;4.498;2023-03-15T02:26:11;101327.47;;;3.86;91.51
69784;BME280;57054;51.978;4.498;2023-03-15T02:28:17;101343.88;;;3.85;91.55
69784;BME280;57054;51.978;4.498;2023-03-15T02:30:44;101349.06;;;3.83;91.31
69784;BME280;57054;51.978;4.498;2023-03-15T02:33:35;101344.78;;;3.81;91.28
69784;BME280;57054;51.978;4.498;2023-03-15T02:36:17;101349.97;;;3.79;91.25
69784;BME280;57054;51.978;4.498;2023-03-15T02:38:43;101347.38;;;3.78;91.11
69784;BME280;57054;51.978;4.498;2023-03-15T02:41:10;101346.53;;;3.76;91.17
69784;BME280;57054;51.978;4.498;2023-03-15T02:43:36;101347.41;;;3.75;91.12
69784;BME280;57054;51.978;4.498;2023-03-15T02:46:04;101350.00;;;3.73;91.07
69784;BME280;57054;51.978;4.498;2023-03-15T02:48:31;101349.16;;;3.71;91.09
69784;BME280;57054;51.978;4.498;2023-03-15T02:50:57;101361.22;;;3.71;91.14
69784;BME280;57054;51.978;4.498;2023-03-15T02:53:23;101364.69;;;3.67;91.01
69784;BME280;57054;51.978;4.498;2023-03-15T02:55:48;101367.28;;;3.67;90.87
69784;BME280;57054;51.978;4.498;2023-03-15T02:58:13;101377.66;;;3.63;90.80
69784;BME280;57054;51.978;4.498;2023-03-15T03:00:39;101390.63;;;3.60;90.59
69784;BME280;57054;51.978;4.498;2023-03-15T03:03:04;101395.81;;;3.59;90.60
69784;BME280;57054;51.978;4.498;2023-03-15T03:05:29;101406.16;;;3.57;90.67
69784;BME280;57054;51.978;4.498;2023-03-15T03:07:55;101408.75;;;3.56;90.76
69784;BME280;57054;51.978;4.498;2023-03-15T03:10:21;101402.72;;;3.54;90.84
69784;BME280;57054;51.978;4.498;2023-03-15T03:12:46;101409.63;;;3.53;90.79
69784;BME280;57054;51.978;4.498;2023-03-15T03:15:12;101411.38;;;3.51;90.75
69784;BME280;57054;51.978;4.498;2023-03-15T03:17:37;101420.00;;;3.50;90.66
69784;BME280;57054;51.978;4.498;2023-03-15T03:20:08;101418.25;;;3.49;90.77
69784;BME280;57054;51.978;4.498;2023-03-15T03:22:34;101426.06;;;3.48;90.74
69784;BME280;57054;51.978;4.498;2023-03-15T03:25:00;101431.22;;;3.46;90.58
69784;BME280;57054;51.978;4.498;2023-03-15T03:27:26;101449.34;;;3.43;90.36
69784;BME280;57054;51.978;4.498;2023-03-15T03:29:52;101453.69;;;3.29;89.83
69784;BME280;57054;51.978;4.498;2023-03-15T03:32:17;101462.31;;;3.18;90.17
69784;BME280;57054;51.978;4.498;2023-03-15T03:34:43;101456.28;;;3.12;90.40
69784;BME280;57054;51.978;4.498;2023-03-15T03:37:16;101458.00;;;3.05;90.69
69784;BME280;57054;51.978;4.498;2023-03-15T03:39:41;101469.22;;;2.99;90.95
69784;BME280;57054;51.978;4.498;2023-03-15T03:42:06;101460.59;;;2.97;91.18
69784;BME280;57054;51.978;4.498;2023-03-15T03:44:32;101452.81;;;2.97;91.58
69784;BME280;57054;51.978;4.498;2023-03-15T03:46:57;101456.28;;;2.99;91.67
69784;BME280;57054;51.978;4.498;2023-03-15T03:49:23;101464.91;;;3.03;91.83
69784;BME280;57054;51.978;4.498;2023-03-15T03:51:48;101458.00;;;3.08;92.15
69784;BME280;57054;51.978;4.498;2023-03-15T03:54:13;101452.81;;;3.13;92.31
69784;BME280;57054;51.978;4.498;2023-03-15T03:56:39;101450.25;;;3.19;92.51
69784;BME280;57054;51.978;4.498;2023-03-15T03:59:04;101460.59;;;3.23;92.56
69784;BME280;57054;51.978;4.498;2023-03-15T04:01:30;101470.09;;;3.28;92.71
69784;BME280;57054;51.978;4.498;2023-03-15T04:03:55;101467.47;;;3.29;92.80
69784;BME280;57054;51.978;4.498;2023-03-15T04:06:21;101473.53;;;3.31;92.89
69784;BME280;57054;51.978;4.498;2023-03-15T04:08:47;101478.69;;;3.34;93.05
69784;BME280;57054;51.978;4.498;2023-03-15T04:11:12;101483.03;;;3.37;93.16
69784;BME280;57054;51.978;4.498;2023-03-15T04:13:42;101481.31;;;3.37;93.25
69784;BME280;57054;51.978;4.498;2023-03-15T04:16:08;101483.00;;;3.38;93.29
69784;BME280;57054;51.978;4.498;2023-03-15T04:18:34;101491.66;;;3.39;93.34
69784;BME280;57054;51.978;4.498;2023-03-15T04:20:59;101499.44;;;3.40;93.44
69784;BME280;57054;51.978;4.498;2023-03-15T04:23:24;101495.09;;;3.41;93.56
69784;BME280;57054;51.978;4.498;2023-03-15T04:25:51;101500.28;;;3.41;93.50
69784;BME280;57054;51.978;4.498;2023-03-15T04:28:19;101502.00;;;3.42;93.55
69784;BME280;57054;51.978;4.498;2023-03-15T04:30:46;101514.09;;;3.41;93.66
69784;BME280;57054;51.978;4.498;2023-03-15T04:33:12;101508.06;;;3.41;93.57
69784;BME280;57054;51.978;4.498;2023-03-15T04:35:38;101508.06;;;3.41;93.66
69784;BME280;57054;51.978;4.498;2023-03-15T04:38:04;101511.50;;;3.40;94.02
69784;BME280;57054;51.978;4.498;2023-03-15T04:40:31;101517.56;;;3.39;93.63
69784;BME280;57054;51.978;4.498;2023-03-15T04:43:00;101529.63;;;3.38;93.62
69784;BME280;57054;51.978;4.498;2023-03-15T04:45:26;101531.34;;;3.38;93.75
69784;BME280;57054;51.978;4.498;2023-03-15T04:47:53;101535.69;;;3.39;93.60
69784;BME280;57054;51.978;4.498;2023-03-15T04:50:20;101542.56;;;3.38;93.54
69784;BME280;57054;51.978;4.498;2023-03-15T04:52:47;101543.44;;;3.37;93.46
69784;BME280;57054;51.978;4.498;2023-03-15T04:55:13;101539.97;;;3.38;93.66
69784;BME280;57054;51.978;4.498;2023-03-15T04:57:38;101546.03;;;3.39;93.69
69784;BME280;57054;51.978;4.498;2023-03-15T05:00:05;101545.16;;;3.38;93.70
69784;BME280;57054;51.978;4.498;2023-03-15T05:02:32;101540.84;;;3.37;93.83
69784;BME280;57054;51.978;4.498;2023-03-15T05:04:58;101537.38;;;3.38;93.96
69784;BME280;57054;51.978;4.498;2023-03-15T05:07:24;101536.53;;;3.38;93.93
69784;BME280;57054;51.978;4.498;2023-03-15T05:09:49;101540.84;;;3.39;93.95
69784;BME280;57054;51.978;4.498;2023-03-15T05:12:15;101545.16;;;3.38;94.07
69784;BME280;57054;51.978;4.498;2023-03-15T05:14:40;101556.38;;;3.37;94.03
69784;BME280;57054;51.978;4.498;2023-03-15T05:17:06;101560.72;;;3.35;93.91
69784;BME280;57054;51.978;4.498;2023-03-15T05:19:31;101572.81;;;3.35;93.99
69784;BME280;57054;51.978;4.498;2023-03-15T05:22:00;101567.59;;;3.32;94.08
69784;BME280;57054;51.978;4.498;2023-03-15T05:24:26;101563.28;;;3.31;93.93
69784;BME280;57054;51.978;4.498;2023-03-15T05:26:51;101562.41;;;3.29;93.81
69784;BME280;57054;51.978;4.498;2023-03-15T05:29:18;101574.50;;;3.26;93.82
69784;BME280;57054;51.978;4.498;2023-03-15T05:31:45;101574.50;;;3.25;93.76
69784;BME280;57054;51.978;4.498;2023-03-15T05:34:11;101577.97;;;3.24;93.73
69784;BME280;57054;51.978;4.498;2023-03-15T05:36:36;101580.53;;;3.22;93.76
69784;BME280;57054;51.978;4.498;2023-03-15T05:39:02;101577.06;;;3.22;93.84
69784;BME280;57054;51.978;4.498;2023-03-15T05:41:27;101581.38;;;3.21;93.90
69784;BME280;57054;51.978;4.498;2023-03-15T05:43:53;101594.31;;;3.20;93.68
69784;BME280;57054;51.978;4.498;2023-03-15T05:46:18;101589.13;;;3.18;93.82
69784;BME280;57054;51.978;4.498;2023-03-15T05:48:44;101590.88;;;3.16;93.76
69784;BME280;57054;51.978;4.498;2023-03-15T05:51:10;101600.34;;;3.14;93.49
69784;BME280;57054;51.978;4.498;2023-03-15T05:53:35;101601.22;;;3.12;93.41
69784;BME280;57054;51.978;4.498;2023-03-15T05:56:00;101615.00;;;3.11;93.42
69784;BME280;57054;51.978;4.498;2023-03-15T05:58:26;101617.59;;;3.09;93.18
69784;BME280;57054;51.978;4.498;2023-03-15T06:00:51;101620.19;;;3.06;93.17
69784;BME280;57054;51.978;4.498;2023-03-15T06:03:17;101633.13;;;3.04;93.21
69784;BME280;57054;51.978;4.498;2023-03-15T06:05:42;101632.28;;;3.04;93.18
69784;BME280;57054;51.978;4.498;2023-03-15T06:08:08;101638.28;;;3.01;93.25
69784;BME280;57054;51.978;4.498;2023-03-15T06:10:34;101646.91;;;3.00;93.07
69784;BME280;57054;51.978;4.498;2023-03-15T06:12:59;101659.88;;;3.00;93.15
69784;BME280;57054;51.978;4.498;2023-03-15T06:15:25;101655.53;;;2.98;93.06
69784;BME280;57054;51.978;4.498;2023-03-15T06:17:50;101659.84;;;2.97;93.15
69784;BME280;57054;51.978;4.498;2023-03-15T06:20:17;101656.41;;;2.97;93.23
69784;BME280;57054;51.978;4.498;2023-03-15T06:22:43;101661.56;;;2.97;93.48
69784;BME280;57054;51.978;4.498;2023-03-15T06:25:09;101666.75;;;2.95;93.22
69784;BME280;57054;51.978;4.498;2023-03-15T06:27:35;101667.56;;;2.94;92.95
69784;BME280;57054;51.978;4.498;2023-03-15T06:30:01;101677.06;;;2.94;93.11
69784;BME280;57054;51.978;4.498;2023-03-15T06:32:27;101678.81;;;2.93;93.12
69784;BME280;57054;51.978;4.498;2023-03-15T06:34:52;101682.25;;;2.92;93.14
69784;BME280;57054;51.978;4.498;2023-03-15T06:37:18;101683.97;;;2.90;93.08
69784;BME280;57054;51.978;4.498;2023-03-15T06:39:43;101694.31;;;2.92;93.17
69784;BME280;57054;51.978;4.498;2023-03-15T06:42:10;101698.63;;;2.90;93.27
69784;BME280;57054;51.978;4.498;2023-03-15T06:44:40;101692.59;;;2.92;93.49
69784;BME280;57054;51.978;4.498;2023-03-15T06:47:07;101712.44;;;2.93;93.45
69784;BME280;57054;51.978;4.498;2023-03-15T06:49:32;101708.97;;;2.94;93.56
69784;BME280;57054;51.978;4.498;2023-03-15T06:51:58;101706.41;;;2.94;93.71
69784;BME280;57054;51.978;4.498;2023-03-15T06:54:23;101717.59;;;2.95;93.59
69784;BME280;57054;51.978;4.498;2023-03-15T06:56:49;101713.31;;;2.94;93.63
69784;BME280;57054;51.978;4.498;2023-03-15T06:59:15;101718.47;;;2.94;94.13
69784;BME280;57054;51.978;4.498;2023-03-15T07:01:40;101715.91;;;2.95;93.87
69784;BME280;57054;51.978;4.498;2023-03-15T07:04:06;101715.00;;;2.95;94.11
69784;BME280;57054;51.978;4.498;2023-03-15T07:06:32;101731.44;;;2.95;94.06
69784;BME280;57054;51.978;4.498;2023-03-15T07:08:58;101734.00;;;2.95;94.22
69784;BME280;57054;51.978;4.498;2023-03-15T07:11:23;101734.00;;;2.95;94.28
69784;BME280;57054;51.978;4.498;2023-03-15T07:13:49;101734.88;;;2.97;94.34
69784;BME280;57054;51.978;4.498;2023-03-15T07:16:14;101741.78;;;2.98;94.34
69784;BME280;57054;51.978;4.498;2023-03-15T07:18:40;101740.06;;;2.99;94.50
69784;BME280;57054;51.978;4.498;2023-03-15T07:21:05;101739.19;;;3.00;94.65
69784;BME280;57054;51.978;4.498;2023-03-15T07:23:32;101753.00;;;3.02;94.70
69784;BME280;57054;51.978;4.498;2023-03-15T07:25:58;101755.59;;;3.03;94.84
69784;BME280;57054;51.978;4.498;2023-03-15T07:28:24;101765.97;;;3.05;94.86
69784;BME280;57054;51.978;4.498;2023-03-15T07:30:56;101768.56;;;3.05;95.00
69784;BME280;57054;51.978;4.498;2023-03-15T07:33:23;101764.25;;;3.05;95.24
69784;BME280;57054;51.978;4.498;2023-03-15T07:35:50;101764.25;;;3.07;95.13
69784;BME280;57054;51.978;4.498;2023-03-15T07:38:16;101766.84;;;3.07;95.31
69784;BME280;57054;51.978;4.498;2023-03-15T07:40:41;101768.59;;;3.08;95.40
69784;BME280;57054;51.978;4.498;2023-03-15T07:43:07;101765.13;;;3.11;95.52
69784;BME280;57054;51.978;4.498;2023-03-15T07:45:32;101776.38;;;3.11;95.70
69784;BME280;57054;51.978;4.498;2023-03-15T07:47:59;101777.25;;;3.13;95.70
69784;BME280;57054;51.978;4.498;2023-03-15T07:50:25;101783.28;;;3.15;95.79
69784;BME280;57054;51.978;4.498;2023-03-15T07:52:50;101786.75;;;3.16;95.87
69784;BME280;57054;51.978;4.498;2023-03-15T07:55:16;101794.50;;;3.17;95.88
69784;BME280;57054;51.978;4.498;2023-03-15T07:57:41;101796.25;;;3.20;96.04
69784;BME280;57054;51.978;4.498;2023-03-15T08:00:07;101796.25;;;3.20;96.17
69784;BME280;57054;51.978;4.498;2023-03-15T08:02:33;101794.53;;;3.22;96.27
69784;BME280;57054;51.978;4.498;2023-03-15T08:04:58;101803.19;;;3.24;96.45
69784;BME280;57054;51.978;4.498;2023-03-15T08:07:24;101808.34;;;3.25;96.55
69784;BME280;57054;51.978;4.498;2023-03-15T08:09:49;101810.94;;;3.27;96.53
69784;BME280;57054;51.978;4.498;2023-03-15T08:12:14;101810.97;;;3.29;96.66
69784;BME280;57054;51.978;4.498;2023-03-15T08:14:40;101827.38;;;3.28;96.35
69784;BME280;57054;51.978;4.498;2023-03-15T08:17:05;101822.16;;;3.21;95.43
69784;BME280;57054;51.978;4.498;2023-03-15T08:19:31;101825.56;;;3.17;95.47
69784;BME280;57054;51.978;4.498;2023-03-15T08:21:56;101833.34;;;3.17;95.63
69784;BME280;57054;51.978;4.498;2023-03-15T08:24:22;101833.31;;;3.10;94.81
69784;BME280;57054;51.978;4.498;2023-03-15T08:26:47;101827.25;;;3.11;94.75
69784;BME280;57054;51.978;4.498;2023-03-15T08:29:13;101831.59;;;3.13;95.05
69784;BME280;57054;51.978;4.498;2023-03-15T08:31:39;101835.06;;;3.18;95.39
69784;BME280;57054;51.978;4.498;2023-03-15T08:34:05;101836.84;;;3.24;95.55
69784;BME280;57054;51.978;4.498;2023-03-15T08:36:31;101836.84;;;3.29;95.77
69784;BME280;57054;51.978;4.498;2023-03-15T08:38:56;101838.63;;;3.31;95.90
69784;BME280;57054;51.978;4.498;2023-03-15T08:41:22;101831.72;;;3.36;96.02
69784;BME280;57054;51.978;4.498;2023-03-15T08:43:47;101838.66;;;3.40;96.06
69784;BME280;57054;51.978;4.498;2023-03-15T08:46:13;101835.22;;;3.43;96.37
69784;BME280;57054;51.978;4.498;2023-03-15T08:48:38;101836.06;;;3.43;96.33
69784;BME280;57054;51.978;4.498;2023-03-15T08:51:05;101837.81;;;3.46;96.35
69784;BME280;57054;51.978;4.498;2023-03-15T08:53:31;101843.00;;;3.48;96.53
69784;BME280;57054;51.978;4.498;2023-03-15T08:55:57;101839.56;;;3.50;96.58
69784;BME280;57054;51.978;4.498;2023-03-15T08:58:23;101842.16;;;3.52;96.72
69784;BME280;57054;51.978;4.498;2023-03-15T09:00:49;101836.13;;;3.54;96.72
69784;BME280;57054;51.978;4.498;2023-03-15T09:03:16;101846.47;;;3.51;93.57
69784;BME280;57054;51.978;4.498;2023-03-15T09:05:41;101836.06;;;3.45;89.10
69784;BME280;57054;51.978;4.498;2023-03-15T09:08:07;101838.69;;;3.48;90.01
69784;BME280;57054;51.978;4.498;2023-03-15T09:10:32;101843.00;;;3.52;90.86
69784;BME280;57054;51.978;4.498;2023-03-15T09:12:58;101831.81;;;3.55;91.54
69784;BME280;57054;51.978;4.498;2023-03-15T09:15:24;101829.22;;;3.59;91.85
69784;BME280;57054;51.978;4.498;2023-03-15T09:17:50;101826.66;;;3.59;91.86
69784;BME280;57054;51.978;4.498;2023-03-15T09:20:16;101830.97;;;3.60;91.01
69784;BME280;57054;51.978;4.498;2023-03-15T09:22:49;101826.66;;;3.62;91.45
69784;BME280;57054;51.978;4.498;2023-03-15T09:25:14;101830.13;;;3.66;91.90
69784;BME280;57054;51.978;4.498;2023-03-15T09:27:40;101829.25;;;3.67;92.05
69784;BME280;57054;51.978;4.498;2023-03-15T09:30:06;101829.28;;;3.70;92.32
69784;BME280;57054;51.978;4.498;2023-03-15T09:32:31;101837.94;;;3.74;92.51
69784;BME280;57054;51.978;4.498;2023-03-15T09:35:03;101835.34;;;3.77;92.80
69784;BME280;57054;51.978;4.498;2023-03-15T09:37:29;101836.22;;;3.79;93.07
69784;BME280;57054;51.978;4.498;2023-03-15T09:39:54;101842.25;;;3.76;92.48
69784;BME280;57054;51.978;4.498;2023-03-15T09:45:17;101837.09;;;3.79;92.13
69784;BME280;57054;51.978;4.498;2023-03-15T09:50:41;101832.78;;;3.86;92.88
69784;BME280;57054;51.978;4.498;2023-03-15T09:53:58;101830.19;;;3.89;93.16
69784;BME280;57054;51.978;4.498;2023-03-15T09:56:17;101829.34;;;3.90;93.56
69784;BME280;57054;51.978;4.498;2023-03-15T09:58:45;101845.75;;;3.94;93.80
69784;BME280;57054;51.978;4.498;2023-03-15T10:01:12;101845.78;;;3.95;94.16
69784;BME280;57054;51.978;4.498;2023-03-15T10:03:46;101845.78;;;3.97;94.29
69784;BME280;57054;51.978;4.498;2023-03-15T10:06:28;101844.06;;;3.99;94.66
69784;BME280;57054;51.978;4.498;2023-03-15T10:08:58;101841.44;;;4.02;94.81
69784;BME280;57054;51.978;4.498;2023-03-15T10:11:48;101845.78;;;4.01;94.43
69784;BME280;57054;51.978;4.498;2023-03-15T10:17:13;101850.09;;;3.99;85.92
69784;BME280;57054;51.978;4.498;2023-03-15T10:19:51;101862.19;;;4.03;84.29
69784;BME280;57054;51.978;4.498;2023-03-15T10:25:20;101870.00;;;4.08;84.00
69784;BME280;57054;51.978;4.498;2023-03-15T10:30:23;101877.78;;;4.14;84.83
69784;BME280;57054;51.978;4.498;2023-03-15T10:35:23;101877.78;;;4.22;85.99
69784;BME280;57054;51.978;4.498;2023-03-15T10:37:49;101877.84;;;4.28;86.49
69784;BME280;57054;51.978;4.498;2023-03-15T10:40:15;101886.50;;;4.33;86.71
69784;BME280;57054;51.978;4.498;2023-03-15T10:43:00;101886.47;;;4.36;86.59
69784;BME280;57054;51.978;4.498;2023-03-15T10:45:25;101895.13;;;4.40;86.62
69784;BME280;57054;51.978;4.498;2023-03-15T10:47:53;101894.28;;;4.41;85.92
69784;BME280;57054;51.978;4.498;2023-03-15T10:50:27;101898.59;;;4.43;83.65
69784;BME280;57054;51.978;4.498;2023-03-15T10:52:56;101896.03;;;4.48;84.91
69784;BME280;57054;51.978;4.498;2023-03-15T10:55:33;101906.41;;;4.54;85.83
69784;BME280;57054;51.978;4.498;2023-03-15T10:58:25;101902.06;;;4.58;86.39
69784;BME280;57054;51.978;4.498;2023-03-15T11:01:07;101917.66;;;4.64;86.95
69784;BME280;57054;51.978;4.498;2023-03-15T11:03:35;101909.00;;;4.65;86.33
69784;BME280;57054;51.978;4.498;2023-03-15T11:06:02;101915.06;;;4.63;80.42
69784;BME280;57054;51.978;4.498;2023-03-15T11:08:41;101921.97;;;4.67;82.49
69784;BME280;57054;51.978;4.498;2023-03-15T11:11:07;101918.53;;;4.71;83.01
69784;BME280;57054;51.978;4.498;2023-03-15T11:13:37;101923.72;;;4.72;82.02
69784;BME280;57054;51.978;4.498;2023-03-15T11:21:22;101915.94;;;4.83;82.71
69784;BME280;57054;51.978;4.498;2023-03-15T11:23:49;101912.47;;;4.86;82.44
69784;BME280;57054;51.978;4.498;2023-03-15T11:26:25;101909.88;;;4.87;80.45
69784;BME280;57054;51.978;4.498;2023-03-15T11:28:53;101918.53;;;4.91;81.35
69784;BME280;57054;51.978;4.498;2023-03-15T11:31:21;101915.09;;;4.93;81.38
69784;BME280;57054;51.978;4.498;2023-03-15T11:34:04;101919.41;;;4.96;81.66
69784;BME280;57054;51.978;4.498;2023-03-15T11:36:33;101913.38;;;4.98;81.47
69784;BME280;57054;51.978;4.498;2023-03-15T11:39:02;101909.03;;;5.02;81.92
69784;BME280;57054;51.978;4.498;2023-03-15T11:41:35;101908.16;;;5.06;81.65
69784;BME280;57054;51.978;4.498;2023-03-15T11:44:27;101907.28;;;5.10;81.14
69784;BME280;57054;51.978;4.498;2023-03-15T11:47:03;101912.47;;;5.16;82.07
69784;BME280;57054;51.978;4.498;2023-03-15T11:52:02;101910.72;;;5.26;79.86
69784;BME280;57054;51.978;4.498;2023-03-15T11:54:29;101901.19;;;5.34;83.36
69784;BME280;57054;51.978;4.498;2023-03-15T11:57:00;101906.38;;;5.41;82.06
69784;BME280;57054;51.978;4.498;2023-03-15T11:59:29;101917.63;;;5.46;79.33
69784;BME280;57054;51.978;4.498;2023-03-15T12:04:39;101907.19;;;5.58;81.03
69784;BME280;57054;51.978;4.498;2023-03-15T12:09:52;101907.16;;;5.69;78.04
69784;BME280;57054;51.978;4.498;2023-03-15T12:17:49;101914.06;;;5.82;79.06
69784;BME280;57054;51.978;4.498;2023-03-15T12:22:50;101913.16;;;5.85;79.40
69784;BME280;57054;51.978;4.498;2023-03-15T12:25:36;101914.03;;;5.85;79.45
69784;BME280;57054;51.978;4.498;2023-03-15T12:28:17;101920.97;;;5.83;77.83
69784;BME280;57054;51.978;4.498;2023-03-15T12:30:44;101914.06;;;5.81;78.33
69784;BME280;57054;51.978;4.498;2023-03-15T12:33:19;101914.91;;;5.81;78.83
69784;BME280;57054;51.978;4.498;2023-03-15T12:35:46;101916.66;;;5.82;78.08
69784;BME280;57054;51.978;4.498;2023-03-15T12:38:21;101911.47;;;5.82;77.27
69784;BME280;57054;51.978;4.498;2023-03-15T12:40:50;101916.63;;;5.84;78.15
69784;BME280;57054;51.978;4.498;2023-03-15T12:45:59;101912.31;;;5.86;75.77
69784;BME280;57054;51.978;4.498;2023-03-15T12:48:25;101907.09;;;5.87;75.74
69784;BME280;57054;51.978;4.498;2023-03-15T12:50:54;101912.28;;;5.92;77.10
69784;BME280;57054;51.978;4.498;2023-03-15T12:55:47;101906.22;;;5.98;75.00
69784;BME280;57054;51.978;4.498;2023-03-15T12:58:15;101901.00;;;6.02;75.76
69784;BME280;57054;51.978;4.498;2023-03-15T13:00:42;101900.13;;;6.05;76.63
69784;BME280;57054;51.978;4.498;2023-03-15T13:03:12;101888.81;;;6.07;76.39
69784;BME280;57054;51.978;4.498;2023-03-15T13:08:30;101893.13;;;6.16;76.50
69784;BME280;57054;51.978;4.498;2023-03-15T13:19:21;101895.66;;;6.31;74.84
69784;BME280;57054;51.978;4.498;2023-03-15T13:24:38;101899.09;;;6.32;69.34
69784;BME280;57054;51.978;4.498;2023-03-15T13:29:33;101906.88;;;6.37;72.10
69784;BME280;57054;51.978;4.498;2023-03-15T13:32:18;101908.59;;;6.38;72.11
69784;BME280;57054;51.978;4.498;2023-03-15T13:34:46;101912.91;;;6.40;71.57
69784;BME280;57054;51.978;4.498;2023-03-15T13:37:20;101909.44;;;6.43;72.10
69784;BME280;57054;51.978;4.498;2023-03-15T13:40:00;101918.97;;;6.44;71.93
69784;BME280;57054;51.978;4.498;2023-03-15T13:42:26;101904.22;;;6.46;71.84
69784;BME280;57054;51.978;4.498;2023-03-15T13:45:22;101898.13;;;6.47;72.19
69784;BME280;57054;51.978;4.498;2023-03-15T13:47:47;101905.06;;;6.49;73.71
69784;BME280;57054;51.978;4.498;2023-03-15T13:50:15;101898.13;;;6.51;73.00
69784;BME280;57054;51.978;4.498;2023-03-15T13:52:41;101907.63;;;6.52;71.76
69784;BME280;57054;51.978;4.498;2023-03-15T13:55:11;101902.44;;;6.52;71.92
69784;BME280;57054;51.978;4.498;2023-03-15T13:57:37;101899.81;;;6.54;73.13
69784;BME280;57054;51.978;4.498;2023-03-15T14:00:07;101900.69;;;6.54;73.74
69784;BME280;57054;51.978;4.498;2023-03-15T14:05:12;101913.69;;;6.54;68.29
69784;BME280;57054;51.978;4.498;2023-03-15T14:07:44;101907.63;;;6.56;69.17
69784;BME280;57054;51.978;4.498;2023-03-15T14:12:42;101907.63;;;6.59;69.83